Main page
METAR-TAF:

METAR-TAF

Airports :

Halli Airport

Jämsä, Finland

latitude: 61-51N, longitude: 024-48E, elevation: 143 m

Current weather observation

The report was made 27 minutes ago, at 03:20 UTC
Wind 14 kt from variable directions
Temperature 0°C
Humidity 86%
Pressure 982 hPa
Visibility 10 km or more
Overcast at a height of 700 ft

METAR: EFHA 080320Z AUTO VRB14KT 9999 OVC007 M00/M02 Q0982

Time: 05:47 (03:47 UTC)


TAF: missing

Weather observations and forecasts of more than 4000 airports (METAR and TAF reports).

The available stations are represented by yellow and red dots on the map.

Hover mouse over dot to see the name of the station.

Then click to see weather observations and forecasts.

To change the map : click on the green buttons with a black cross to zoom in, on the green button with a dash to zoom out, or on the green arrows for adjacent maps.


METAR-TAF: